Time;durP1;ratioP1;P1;durP2;ratioP2;P2;SDS_P1;SDS_P2;PMS_P1;PMS_P2;Temp;Humidity;BMP_temperature;BMP_pressure;BME280_temperature;BME280_humidity;BME280_pressure;Samples;Min_cycle;Max_cycle;Signal;HPM_P1;HPM_P2
2022/07/12 00:01:35;;;;;;;5.68;1.98;;;;;;;20.73;100.00;100968.66;5089475;28;20051;-86
2022/07/12 00:04:02;;;;;;;6.47;2.40;;;;;;;21.00;100.00;100996.78;5090192;27;20134;-86
2022/07/12 00:06:29;;;;;;;4.70;1.60;;;;;;;21.19;100.00;101013.00;5089702;28;20097;-86
2022/07/12 00:08:56;;;;;;;4.15;1.48;;;;;;;21.03;100.00;100996.53;5131496;27;20047;-86
2022/07/12 00:11:23;;;;;;;4.30;1.60;;;;;;;20.88;100.00;100995.09;5110967;27;20062;-86
2022/07/12 00:13:50;;;;;;;5.50;1.90;;;;;;;20.73;100.00;100987.28;5113532;27;20055;-85
2022/07/12 00:16:17;;;;;;;7.07;2.15;;;;;;;20.52;100.00;100989.75;5113658;28;20488;-85
2022/07/12 00:18:44;;;;;;;5.47;1.77;;;;;;;20.72;100.00;100995.41;5099438;28;20398;-86
2022/07/12 00:21:11;;;;;;;5.53;1.85;;;;;;;20.67;100.00;100999.25;5087309;28;20052;-85
2022/07/12 00:23:38;;;;;;;7.55;1.77;;;;;;;20.69;100.00;100980.53;5093194;28;20054;-86
2022/07/12 00:26:05;;;;;;;5.13;1.80;;;;;;;20.59;100.00;100977.69;5081137;28;20049;-86
2022/07/12 00:28:32;;;;;;;3.42;1.33;;;;;;;20.96;100.00;100993.50;5082651;28;20048;-85
2022/07/12 00:30:59;;;;;;;4.38;1.65;;;;;;;20.99;100.00;100982.63;5089036;28;20048;-85
2022/07/12 00:33:27;;;;;;;4.07;1.30;;;;;;;21.15;100.00;101018.72;5083026;28;20768;-85
2022/07/12 00:35:54;;;;;;;4.80;1.65;;;;;;;21.05;100.00;101003.47;5105052;28;20046;-85
2022/07/12 00:38:21;;;;;;;3.80;1.55;;;;;;;21.14;100.00;101001.03;5101759;28;20053;-85
2022/07/12 00:40:49;;;;;;;5.30;1.70;;;;;;;21.08;100.00;100991.72;5094482;28;20054;-86
2022/07/12 00:43:16;;;;;;;5.50;1.65;;;;;;;21.13;100.00;100996.69;5107853;28;20082;-85
2022/07/12 00:45:42;;;;;;;5.28;1.80;;;;;;;21.03;100.00;100984.09;5094610;28;20044;-86
2022/07/12 00:48:10;;;;;;;9.73;2.10;;;;;;;20.77;100.00;100974.59;5096761;27;20397;-86
2022/07/12 00:50:37;;;;;;;5.53;1.80;;;;;;;20.69;100.00;100983.19;5116208;27;20048;-86
2022/07/12 00:53:04;;;;;;;6.20;2.13;;;;;;;20.84;100.00;101003.31;5084442;28;20062;-86
2022/07/12 00:55:31;;;;;;;5.43;1.83;;;;;;;20.98;100.00;101001.38;5103673;28;20055;-86
2022/07/12 00:57:58;;;;;;;6.55;1.75;;;;;;;20.89;100.00;100986.13;5093874;28;20048;-86
2022/07/12 01:00:27;;;;;;;7.00;1.83;;;;;;;20.97;100.00;100970.41;5094172;28;20044;-86
2022/07/12 01:03:01;;;;;;;4.43;1.58;;;;;;;20.79;100.00;100964.72;5094111;28;20066;-86
2022/07/12 01:05:29;;;;;;;4.60;1.58;;;;;;;20.80;100.00;100951.25;5108932;28;20070;-86
2022/07/12 01:07:57;;;;;;;5.00;1.83;;;;;;;20.86;100.00;100950.81;5094515;28;20051;-86
2022/07/12 01:10:24;;;;;;;6.00;1.60;;;;;;;21.09;100.00;100984.56;5076828;28;20126;-85
2022/07/12 01:12:51;;;;;;;6.25;1.85;;;;;;;20.67;100.00;100977.97;5079809;28;20113;-86
2022/07/12 01:15:20;;;;;;;5.88;1.70;;;;;;;20.78;100.00;100963.00;5092738;28;20055;-86
2022/07/12 01:17:47;;;;;;;6.45;2.05;;;;;;;20.90;100.00;100962.06;5100353;28;20071;-86
2022/07/12 01:20:19;;;;;;;4.53;1.65;;;;;;;20.90;100.00;100955.91;5093913;28;20051;-85
2022/07/12 01:22:59;;;;;;;5.22;1.73;;;;;;;20.57;100.00;100958.31;5092743;28;20523;-86
2022/07/12 01:25:27;;;;;;;5.15;1.70;;;;;;;20.59;100.00;100952.88;5090400;28;20345;-86
2022/07/12 01:27:54;;;;;;;6.38;1.90;;;;;;;20.89;100.00;100970.16;5099189;28;20504;-86
2022/07/12 01:30:21;;;;;;;6.72;1.95;;;;;;;20.67;100.00;100985.13;5121795;28;20405;-86
2022/07/12 01:32:48;;;;;;;7.72;1.92;;;;;;;20.53;100.00;100990.63;5093704;28;20047;-86
2022/07/12 01:35:16;;;;;;;7.38;2.08;;;;;;;20.32;100.00;100969.97;5094442;28;20053;-85
2022/07/12 01:37:43;;;;;;;5.15;1.95;;;;;;;20.19;100.00;100996.63;5099323;28;20481;-86
2022/07/12 01:40:15;;;;;;;5.88;2.05;;;;;;;20.01;100.00;100995.31;5089237;28;20050;-86
2022/07/12 01:42:44;;;;;;;4.43;1.60;;;;;;;20.12;100.00;100994.56;5099712;28;20127;-85
2022/07/12 01:45:12;;;;;;;7.15;2.25;;;;;;;19.77;100.00;100976.72;5094132;28;20067;-86
2022/07/12 01:47:39;;;;;;;4.97;1.90;;;;;;;19.88;100.00;100990.06;5083748;28;20070;-86
2022/07/12 01:50:08;;;;;;;8.23;2.22;;;;;;;20.05;100.00;101002.97;5077523;28;20078;-86
2022/07/12 01:52:44;;;;;;;5.88;2.03;;;;;;;19.74;100.00;100985.75;5093584;28;20047;-87
2022/07/12 01:55:12;;;;;;;7.38;2.55;;;;;;;19.85;100.00;101000.94;5091035;28;20044;-86
2022/07/12 01:57:41;;;;;;;7.55;2.10;;;;;;;19.69;100.00;100986.06;5083558;28;20048;-86
2022/07/12 02:00:08;;;;;;;5.93;2.03;;;;;;;19.55;100.00;100975.59;5112275;28;20062;-86
2022/07/12 02:02:35;;;;;;;4.85;1.80;;;;;;;19.43;100.00;100987.06;5111967;28;20050;-86
2022/07/12 02:05:03;;;;;;;10.13;2.30;;;;;;;19.19;100.00;100974.56;5080693;28;20048;-86
2022/07/12 02:07:31;;;;;;;6.88;2.35;;;;;;;19.30;100.00;100979.97;5079878;28;20048;-86
2022/07/12 02:09:58;;;;;;;5.32;1.90;;;;;;;19.12;100.00;100944.09;5112746;28;20047;-86
2022/07/12 02:12:25;;;;;;;7.03;2.03;;;;;;;19.16;100.00;100962.38;5092816;28;20143;-86
2022/07/12 02:14:52;;;;;;;8.50;2.50;;;;;;;18.76;100.00;100953.63;5086867;28;20408;-86
2022/07/12 02:17:19;;;;;;;7.97;2.10;;;;;;;19.16;100.00;100967.66;5092574;28;20052;-86
2022/07/12 02:19:46;;;;;;;8.13;1.90;;;;;;;19.18;100.00;100969.38;5095994;28;20057;-86
2022/07/12 02:22:13;;;;;;;7.60;2.33;;;;;;;18.89;100.00;100948.34;5098284;28;20054;-85
2022/07/12 02:24:40;;;;;;;8.55;2.08;;;;;;;19.21;100.00;100958.53;5118695;28;20486;-85
2022/07/12 02:27:07;;;;;;;6.38;2.00;;;;;;;19.20;100.00;100949.72;5125830;28;20134;-86
2022/07/12 02:29:35;;;;;;;5.80;2.00;;;;;;;19.16;100.00;100964.19;5122341;28;20564;-86
2022/07/12 02:32:02;;;;;;;5.50;1.90;;;;;;;19.36;100.00;100946.84;5107744;28;20050;-86
2022/07/12 02:34:30;;;;;;;6.10;1.80;;;;;;;19.26;100.00;100959.91;5100307;28;20541;-86
2022/07/12 02:36:57;;;;;;;5.03;1.70;;;;;;;19.28;100.00;100949.16;5108864;27;20047;-86
2022/07/12 02:39:24;;;;;;;5.68;1.70;;;;;;;19.16;100.00;100927.88;5087245;28;20134;-86
2022/07/12 02:41:50;;;;;;;5.43;2.00;;;;;;;19.30;100.00;100936.63;5086240;28;20069;-85
2022/07/12 02:44:17;;;;;;;4.13;1.55;;;;;;;19.39;100.00;100919.19;5113421;28;20048;-86
2022/07/12 02:46:44;;;;;;;3.38;1.35;;;;;;;19.57;100.00;100944.44;5114439;28;20139;-86
2022/07/12 02:49:11;;;;;;;3.95;1.60;;;;;;;19.61;100.00;100931.78;5096777;28;20397;-86
2022/07/12 02:51:37;;;;;;;4.90;1.73;;;;;;;19.69;100.00;100929.44;5114078;28;20057;-86
2022/07/12 02:54:04;;;;;;;5.22;1.73;;;;;;;19.30;100.00;100896.81;5086656;28;20051;-86
2022/07/12 02:56:31;;;;;;;5.47;2.00;;;;;;;19.10;100.00;100899.09;5111339;28;20401;-86
2022/07/12 02:58:58;;;;;;;5.45;1.70;;;;;;;19.40;100.00;100934.19;5096317;28;20051;-86
2022/07/12 03:01:24;;;;;;;4.78;1.60;;;;;;;19.09;100.00;100900.06;5094364;28;20112;-86
2022/07/12 03:03:51;;;;;;;6.25;2.30;;;;;;;18.89;100.00;100898.81;5084933;28;20051;-86
2022/07/12 03:06:19;;;;;;;4.53;1.67;;;;;;;19.05;100.00;100935.75;5084996;28;20128;-86
2022/07/12 03:08:46;;;;;;;7.25;1.90;;;;;;;18.93;100.00;100936.59;5109983;28;20058;-86
2022/07/12 03:11:12;;;;;;;6.18;2.10;;;;;;;19.01;100.00;100944.84;5093383;28;20047;-87
2022/07/12 03:13:39;;;;;;;5.88;1.90;;;;;;;18.88;100.00;100949.31;5079414;28;20123;-87
2022/07/12 03:16:07;;;;;;;6.05;2.13;;;;;;;18.91;100.00;100942.00;5093620;27;20075;-87
2022/07/12 03:18:34;;;;;;;6.15;1.90;;;;;;;19.02;100.00;100917.38;5086128;28;20052;-87
2022/07/12 03:21:01;;;;;;;8.98;2.22;;;;;;;18.89;100.00;100935.97;5092089;28;20474;-87
2022/07/12 03:23:28;;;;;;;7.07;2.10;;;;;;;18.57;100.00;100893.91;5108054;28;20082;-85
2022/07/12 03:25:55;;;;;;;7.28;2.13;;;;;;;18.60;100.00;100883.06;5093908;28;20449;-84
2022/07/12 03:28:25;;;;;;;5.47;2.08;;;;;;;18.81;100.00;100911.72;5093983;28;20059;-87
2022/07/12 03:30:51;;;;;;;4.88;1.80;;;;;;;18.73;100.00;100911.41;5097757;27;20058;-87
2022/07/12 03:33:18;;;;;;;7.10;2.03;;;;;;;18.70;100.00;100885.13;5113628;28;20058;-86
2022/07/12 03:35:45;;;;;;;7.13;2.08;;;;;;;18.81;100.00;100894.97;5113941;28;20039;-87
2022/07/12 03:38:12;;;;;;;5.90;1.70;;;;;;;18.88;100.00;100933.41;5082094;28;20065;-87
2022/07/12 03:40:39;;;;;;;5.63;2.03;;;;;;;18.73;100.00;100916.69;5092103;28;20054;-88
2022/07/12 03:43:06;;;;;;;9.07;2.25;;;;;;;18.78;100.00;100935.81;5086348;28;20535;-88
2022/07/12 03:45:32;;;;;;;7.22;2.30;;;;;;;18.90;100.00;100934.16;5095430;28;20144;-88
2022/07/12 03:47:59;;;;;;;10.45;2.80;;;;;;;18.72;100.00;100925.63;5113386;28;20055;-88
2022/07/12 03:50:26;;;;;;;10.38;2.10;;;;;;;18.69;100.00;100883.41;5095367;28;20044;-87
2022/07/12 03:52:53;;;;;;;5.40;2.10;;;;;;;18.99;100.00;100914.09;5086466;28;20111;-87
2022/07/12 03:55:20;;;;;;;5.60;1.90;;;;;;;18.55;100.00;100898.44;5093136;28;20071;-87
2022/07/12 03:57:48;;;;;;;6.75;2.00;;;;;;;18.66;100.00;100924.25;5075562;28;20048;-87
2022/07/12 04:00:15;;;;;;;7.80;2.47;;;;;;;18.61;100.00;100926.38;5098545;28;20114;-87
2022/07/12 04:02:42;;;;;;;8.43;2.25;;;;;;;18.29;100.00;100881.69;5092366;28;20493;-87
2022/07/12 04:05:10;;;;;;;9.13;2.85;;;;;;;18.65;100.00;100906.63;5093002;28;20435;-86
2022/07/12 04:07:38;;;;;;;5.32;2.03;;;;;;;18.70;100.00;100931.03;5085750;28;20044;-86
2022/07/12 04:10:05;;;;;;;5.68;1.85;;;;;;;18.70;100.00;100904.53;5074575;28;20135;-87
2022/07/12 04:12:32;;;;;;;7.15;2.28;;;;;;;18.36;100.00;100882.97;5088836;28;20058;-87
2022/07/12 04:14:59;;;;;;;8.13;2.97;;;;;;;18.39;100.00;100906.59;5080758;28;20461;-87
2022/07/12 04:17:26;;;;;;;7.43;2.38;;;;;;;18.66;100.00;100896.88;5081152;28;20043;-87
2022/07/12 04:19:53;;;;;;;8.88;2.50;;;;;;;18.92;100.00;100927.78;5100449;28;20054;-86
2022/07/12 04:22:20;;;;;;;6.18;2.30;;;;;;;18.48;100.00;100883.06;5098015;28;20040;-86
2022/07/12 04:24:46;;;;;;;9.20;2.28;;;;;;;18.40;100.00;100870.34;5084948;28;20554;-87
2022/07/12 04:27:13;;;;;;;7.53;2.20;;;;;;;18.82;100.00;100905.47;5091582;28;20056;-86
2022/07/12 04:29:40;;;;;;;10.55;2.97;;;;;;;18.64;100.00;100904.94;5113890;28;20375;-87
2022/07/12 04:32:07;;;;;;;6.85;2.20;;;;;;;18.65;100.00;100893.38;5094861;28;20056;-86
2022/07/12 04:34:34;;;;;;;6.00;2.20;;;;;;;18.82;100.00;100902.00;5095286;28;20631;-86
2022/07/12 04:37:01;;;;;;;7.93;2.50;;;;;;;19.11;100.00;100906.09;5103777;28;20040;-87
2022/07/12 04:39:28;;;;;;;8.50;2.97;;;;;;;18.69;100.00;100867.50;5109100;28;20055;-86
2022/07/12 04:41:55;;;;;;;5.32;1.90;;;;;;;18.66;100.00;100868.56;5111977;28;20500;-87
2022/07/12 04:44:21;;;;;;;7.13;2.10;;;;;;;18.81;100.00;100874.59;5093668;28;20299;-86
2022/07/12 04:46:49;;;;;;;7.22;2.38;;;;;;;18.89;100.00;100900.59;5081069;28;20054;-86
2022/07/12 04:49:16;;;;;;;8.07;2.20;;;;;;;18.92;100.00;100900.41;5094640;28;20104;-86
2022/07/12 04:51:42;;;;;;;6.05;1.90;;;;;;;18.99;100.00;100901.66;5094758;28;20093;-87
2022/07/12 04:54:09;;;;;;;5.47;1.92;;;;;;;19.00;100.00;100881.28;5103571;28;20047;-87
2022/07/12 04:56:36;;;;;;;5.65;1.83;;;;;;;19.29;100.00;100897.78;5098834;28;20449;-87
2022/07/12 04:59:03;;;;;;;7.85;2.42;;;;;;;19.21;100.00;100890.38;5094955;28;20052;-87
2022/07/12 05:01:30;;;;;;;8.95;2.38;;;;;;;19.20;100.00;100914.38;5096572;28;20396;-87
2022/07/12 05:03:57;;;;;;;6.15;2.20;;;;;;;19.28;100.00;100912.00;5094086;28;20051;-86
2022/07/12 05:06:24;;;;;;;7.68;2.22;;;;;;;19.43;100.00;100921.53;5080751;28;20450;-86
2022/07/12 05:08:51;;;;;;;8.40;2.25;;;;;;;19.44;100.00;100907.31;5112910;28;20054;-86
2022/07/12 05:11:19;;;;;;;8.52;2.20;;;;;;;19.18;100.00;100890.59;5093973;28;20057;-87
2022/07/12 05:13:46;;;;;;;8.65;2.17;;;;;;;19.43;100.00;100931.31;5081501;28;20059;-86
2022/07/12 05:16:13;;;;;;;6.90;2.33;;;;;;;19.42;100.00;100903.06;5085118;28;20385;-87
2022/07/12 05:18:39;;;;;;;5.53;2.10;;;;;;;19.59;100.00;100912.47;5092818;28;20044;-86
2022/07/12 05:21:06;;;;;;;6.88;2.03;;;;;;;19.55;100.00;100917.16;5112055;28;20094;-86
2022/07/12 05:23:33;;;;;;;5.57;2.22;;;;;;;19.78;100.00;100931.44;5079685;28;20054;-86
2022/07/12 05:26:01;;;;;;;5.97;2.15;;;;;;;19.80;100.00;100904.78;5092546;28;20057;-86
2022/07/12 05:28:28;;;;;;;9.70;2.22;;;;;;;19.90;100.00;100900.44;5093844;28;20051;-86
2022/07/12 05:30:55;;;;;;;5.97;1.75;;;;;;;19.80;100.00;100908.28;5079324;28;20047;-87
2022/07/12 05:33:22;;;;;;;7.70;2.55;;;;;;;19.96;100.00;100937.22;5081188;28;20064;-86
2022/07/12 05:35:51;;;;;;;6.00;1.77;;;;;;;19.90;100.00;100896.00;5091933;28;20056;-86
2022/07/12 05:38:18;;;;;;;8.32;2.70;;;;;;;19.50;100.00;100879.47;5112585;28;20519;-86
2022/07/12 05:40:45;;;;;;;7.35;2.65;;;;;;;19.94;100.00;100947.13;5111423;28;20058;-86
2022/07/12 05:43:12;;;;;;;8.77;2.03;;;;;;;19.62;100.00;100885.66;5086329;28;20147;-86
2022/07/12 05:45:40;;;;;;;7.13;2.13;;;;;;;19.88;100.00;100905.91;5083272;28;20128;-87
2022/07/12 05:48:08;;;;;;;7.20;2.15;;;;;;;20.19;100.00;100940.81;5108890;28;20417;-86
2022/07/12 05:50:34;;;;;;;6.53;1.80;;;;;;;20.22;100.00;100923.78;5084808;28;20131;-86
2022/07/12 05:55:46;;;;;;;5.05;1.92;;;;;;;20.19;100.00;100900.94;5112733;28;20424;-87
2022/07/12 05:58:13;;;;;;;6.10;2.03;;;;;;;20.13;100.00;100935.94;5080163;28;20044;-86
2022/07/12 06:00:40;;;;;;;6.93;2.17;;;;;;;20.03;100.00;100929.63;5112184;28;20050;-87
2022/07/12 06:03:07;;;;;;;8.48;1.98;;;;;;;20.29;100.00;100887.78;5101032;28;20054;-86
2022/07/12 06:05:34;;;;;;;6.65;2.20;;;;;;;21.47;100.00;100948.78;5107290;28;20504;-86
2022/07/12 06:08:00;;;;;;;7.60;1.98;;;;;;;21.82;100.00;100913.09;5098163;28;20428;-86
2022/07/12 06:10:27;;;;;;;5.97;1.90;;;;;;;22.37;100.00;100940.53;5121494;27;20040;-86
2022/07/12 06:12:54;;;;;;;8.63;2.15;;;;;;;22.55;100.00;100946.94;5118997;27;20051;-85
2022/07/12 06:15:21;;;;;;;5.07;1.60;;;;;;;22.91;100.00;100923.44;5115392;27;20167;-85
2022/07/12 06:17:48;;;;;;;5.63;1.83;;;;;;;23.34;100.00;100909.97;5095669;28;20047;-85
2022/07/12 06:20:15;;;;;;;3.95;1.30;;;;;;;23.84;100.00;100923.31;5081895;28;20052;-85
2022/07/12 06:22:42;;;;;;;4.45;1.52;;;;;;;24.51;100.00;100926.94;5103291;28;20500;-85
2022/07/12 06:25:09;;;;;;;3.38;1.20;;;;;;;23.69;100.00;100942.41;5115669;28;20043;-85
2022/07/12 06:27:59;;;;;;;6.10;2.00;;;;;;;23.54;100.00;100917.06;5108930;28;20047;-85
2022/07/12 06:30:25;;;;;;;3.58;1.10;;;;;;;24.28;100.00;100930.94;5092978;28;20059;-85
2022/07/12 06:32:52;;;;;;;4.63;1.20;;;;;;;24.07;100.00;100943.44;5105434;28;20115;-85
2022/07/12 06:35:20;;;;;;;4.88;1.30;;;;;;;23.08;100.00;100905.13;5115371;28;20081;-85
2022/07/12 06:37:47;;;;;;;5.43;1.58;;;;;;;22.85;100.00;100934.63;5096937;28;20054;-83
2022/07/12 06:40:16;;;;;;;5.80;1.50;;;;;;;22.96;100.00;100903.50;5086219;28;20052;-84
2022/07/12 06:42:43;;;;;;;3.03;1.05;;;;;;;22.60;100.00;100941.22;5101762;28;20043;-85
2022/07/12 06:45:11;;;;;;;2.47;1.10;;;;;;;22.01;100.00;100915.94;5114283;28;20051;-84
2022/07/12 06:47:37;;;;;;;4.45;1.63;;;;;;;21.73;100.00;100877.41;5095517;28;20050;-85
2022/07/12 06:50:05;;;;;;;3.75;1.20;;;;;;;22.62;100.00;100899.25;5081929;28;20235;-84
2022/07/12 06:52:32;;;;;;;4.40;1.20;;;;;;;23.05;100.00;100908.88;5107509;28;20048;-84
2022/07/12 06:54:58;;;;;;;3.42;1.33;;;;;;;23.66;100.00;100926.66;5094003;28;20053;-84
2022/07/12 06:57:30;;;;;;;2.80;0.90;;;;;;;24.38;100.00;100934.41;5110889;28;20123;-85
2022/07/12 06:59:57;;;;;;;2.25;0.98;;;;;;;24.56;100.00;100937.22;5102650;28;20044;-86
2022/07/12 07:02:23;;;;;;;3.40;1.00;;;;;;;24.99;100.00;100927.81;5095208;28;20044;-85
2022/07/12 07:04:51;;;;;;;2.53;0.98;;;;;;;25.11;100.00;100915.09;5109667;28;20489;-85
2022/07/12 07:07:18;;;;;;;3.05;1.00;;;;;;;25.69;100.00;100913.91;5115272;28;20081;-85
2022/07/12 07:09:44;;;;;;;3.80;1.20;;;;;;;25.54;100.00;100943.09;5095664;28;20047;-85
2022/07/12 07:12:11;;;;;;;2.42;0.90;;;;;;;25.71;100.00;100934.25;5110623;28;20076;-85
2022/07/12 07:14:38;;;;;;;2.95;0.80;;;;;;;25.45;99.15;100926.09;5104636;28;20048;-85
2022/07/12 07:17:05;;;;;;;2.70;0.90;;;;;;;24.61;100.00;100930.50;5108319;27;20123;-86
2022/07/12 07:19:32;;;;;;;3.30;1.00;;;;;;;24.31;100.00;100914.56;5090698;27;20048;-84
2022/07/12 07:21:59;;;;;;;2.80;1.00;;;;;;;23.70;100.00;100903.16;5097191;28;20529;-85
2022/07/12 07:24:26;;;;;;;1.75;0.70;;;;;;;23.86;100.00;100940.06;5096077;28;20689;-85
2022/07/12 07:26:52;;;;;;;1.83;0.80;;;;;;;24.07;100.00;100938.09;5082234;28;20054;-85
2022/07/12 07:32:09;;;;;;;2.60;0.80;;;;;;;23.41;100.00;100895.94;5105526;28;20062;-85
2022/07/12 07:34:36;;;;;;;3.25;1.05;;;;;;;23.59;100.00;100946.88;5080070;28;20051;-85
2022/07/12 07:37:04;;;;;;;1.95;0.80;;;;;;;23.32;100.00;100920.81;5103465;28;20585;-83
2022/07/12 07:39:30;;;;;;;3.00;1.33;;;;;;;23.26;100.00;100902.63;5094194;28;20078;-84
2022/07/12 07:41:57;;;;;;;2.47;0.90;;;;;;;23.18;100.00;100945.19;5085288;28;20051;-83
2022/07/12 07:44:24;;;;;;;1.83;0.77;;;;;;;22.80;100.00;100888.81;5081691;28;20039;-84
2022/07/12 07:46:59;;;;;;;0.85;0.63;;;;;;;23.60;100.00;100923.66;5093894;28;20050;-85
2022/07/12 07:49:26;;;;;;;1.73;0.70;;;;;;;23.79;100.00;100936.22;5094207;28;20051;-84
2022/07/12 07:51:53;;;;;;;3.25;1.00;;;;;;;23.62;100.00;100927.03;5112765;28;20047;-84
2022/07/12 07:54:20;;;;;;;2.15;0.90;;;;;;;23.36;100.00;100932.91;5078119;28;20075;-85
2022/07/12 07:56:47;;;;;;;2.42;1.00;;;;;;;23.40;100.00;100954.84;5099562;28;20473;-85
2022/07/12 07:59:14;;;;;;;4.68;1.10;;;;;;;23.54;100.00;100926.91;5083730;28;20398;-84
2022/07/12 08:01:52;;;;;;;2.20;0.82;;;;;;;23.24;100.00;100904.59;5099827;28;20051;-84
2022/07/12 08:04:20;;;;;;;3.38;1.00;;;;;;;23.62;100.00;100953.78;5093197;28;20079;-84
2022/07/12 08:06:48;;;;;;;1.52;0.80;;;;;;;23.39;100.00;100938.00;5092901;28;20456;-84
2022/07/12 08:09:15;;;;;;;3.65;1.10;;;;;;;23.55;100.00;100947.28;5099685;28;20058;-85
2022/07/12 08:11:42;;;;;;;2.70;0.73;;;;;;;23.63;100.00;100936.78;5092889;28;20109;-85
2022/07/12 08:14:10;;;;;;;2.80;0.80;;;;;;;23.31;100.00;100919.94;5094275;28;20065;-85
2022/07/12 08:16:37;;;;;;;2.53;1.00;;;;;;;23.44;100.00;100932.22;5086930;28;20035;-85
2022/07/12 08:19:05;;;;;;;1.63;0.73;;;;;;;23.63;100.00;100918.06;5094476;28;20047;-85
2022/07/12 08:21:32;;;;;;;2.97;1.08;;;;;;;23.44;100.00;100919.72;5088695;28;20079;-85
2022/07/12 08:23:59;;;;;;;3.67;1.23;;;;;;;23.06;100.00;100944.47;5111926;27;20043;-85
2022/07/12 08:26:26;;;;;;;3.97;1.30;;;;;;;23.30;100.00;100931.63;5110263;27;20048;-84
2022/07/12 08:28:52;;;;;;;2.85;1.00;;;;;;;23.39;100.00;100939.78;5095243;28;20058;-84
2022/07/12 08:31:19;;;;;;;2.88;0.90;;;;;;;23.65;100.00;100949.00;5084843;28;20047;-85
2022/07/12 08:33:46;;;;;;;2.97;1.00;;;;;;;23.73;100.00;100956.34;5094004;28;20126;-85
2022/07/12 08:36:13;;;;;;;2.33;1.00;;;;;;;23.61;100.00;100950.25;5113863;27;20047;-85
2022/07/12 08:38:44;;;;;;;3.53;1.00;;;;;;;23.58;100.00;100949.69;5108515;27;20059;-85
2022/07/12 08:41:13;;;;;;;5.88;1.23;;;;;;;23.34;100.00;100942.88;5091653;27;20040;-85
2022/07/12 08:43:41;;;;;;;4.57;1.40;;;;;;;23.07;100.00;100946.13;5089182;28;20537;-85
2022/07/12 08:46:10;;;;;;;2.28;1.02;;;;;;;23.41;100.00;100943.16;5087419;28;20077;-84
2022/07/12 08:48:38;;;;;;;2.80;1.05;;;;;;;24.09;100.00;100974.56;5079289;28;20054;-85
2022/07/12 08:51:06;;;;;;;3.60;1.10;;;;;;;23.95;100.00;100973.16;5080994;28;20576;-86
2022/07/12 08:53:33;;;;;;;2.08;0.90;;;;;;;24.23;100.00;100968.81;5104421;28;20125;-85
2022/07/12 08:56:02;;;;;;;3.42;1.20;;;;;;;23.95;100.00;100936.56;5094542;28;20146;-86
2022/07/12 08:58:29;;;;;;;3.03;1.10;;;;;;;24.09;100.00;100975.41;5112544;28;20408;-86
2022/07/12 09:00:56;;;;;;;3.05;1.10;;;;;;;23.73;100.00;100956.34;5094439;28;20060;-85
2022/07/12 09:03:23;;;;;;;4.05;1.20;;;;;;;23.87;100.00;100944.44;5105156;28;20552;-85
2022/07/12 09:05:54;;;;;;;2.47;1.00;;;;;;;24.36;100.00;100968.50;5096506;28;20064;-86
2022/07/12 09:08:30;;;;;;;5.32;1.38;;;;;;;24.50;100.00;100962.72;5091242;28;20039;-85
2022/07/12 09:11:03;;;;;;;3.47;1.20;;;;;;;24.80;100.00;100959.03;5075304;28;20070;-86
2022/07/12 09:13:51;;;;;;;4.00;1.42;;;;;;;24.74;100.00;100956.94;5095264;28;20054;-86
2022/07/12 09:16:27;;;;;;;2.35;0.93;;;;;;;23.91;100.00;100915.59;5093661;28;20069;-86
2022/07/12 09:19:17;;;;;;;5.07;1.10;;;;;;;24.84;100.00;100951.53;5108860;28;20043;-85
2022/07/12 09:21:54;;;;;;;3.38;1.20;;;;;;;25.10;100.00;100927.63;5106281;28;20489;-86
2022/07/12 09:24:25;;;;;;;5.00;1.50;;;;;;;25.25;100.00;100957.50;5101724;28;20093;-86
2022/07/12 09:27:02;;;;;;;3.33;1.10;;;;;;;25.66;98.15;100957.16;5082487;28;20050;-86
2022/07/12 09:29:30;;;;;;;3.85;1.27;;;;;;;25.96;91.55;100942.56;5082432;28;20079;-85
2022/07/12 09:37:27;;;;;;;3.20;1.08;;;;;;;26.38;90.08;100959.84;5111565;28;20074;-85
2022/07/12 09:39:54;;;;;;;2.38;1.08;;;;;;;27.14;87.02;100963.72;5100225;27;20053;-85
2022/07/12 09:42:23;;;;;;;5.30;1.63;;;;;;;26.54;84.73;100959.97;5093427;28;20054;-85
2022/07/12 09:44:56;;;;;;;3.20;1.00;;;;;;;25.87;87.26;100980.97;5085708;28;20062;-86
2022/07/12 09:47:25;;;;;;;2.58;1.00;;;;;;;26.49;86.20;100960.47;5095512;28;20040;-85
2022/07/12 09:49:52;;;;;;;2.47;0.90;;;;;;;26.01;84.83;100934.91;5097917;28;20048;-85
2022/07/12 09:52:25;;;;;;;2.45;0.88;;;;;;;26.25;83.84;100952.22;5095422;28;20044;-86
2022/07/12 09:54:53;;;;;;;2.85;0.90;;;;;;;26.00;84.08;100967.25;5112913;28;20046;-85
2022/07/12 09:57:41;;;;;;;3.47;1.00;;;;;;;25.43;90.29;100983.50;5098352;28;20069;-85
2022/07/12 10:00:11;;;;;;;2.72;0.98;;;;;;;25.98;90.22;100982.66;5083564;28;20055;-85
2022/07/12 10:02:39;;;;;;;2.35;0.80;;;;;;;26.12;84.64;100984.81;5111205;28;20074;-85
2022/07/12 10:05:10;;;;;;;2.58;0.90;;;;;;;25.65;86.38;100963.50;5094982;28;20130;-85
2022/07/12 10:07:38;;;;;;;1.70;0.80;;;;;;;25.63;87.13;100979.72;5105273;28;20097;-85
2022/07/12 10:10:06;;;;;;;2.15;0.80;;;;;;;25.77;86.18;100989.94;5096012;28;20074;-85
2022/07/12 10:12:34;;;;;;;1.98;0.65;;;;;;;25.56;83.50;100968.75;5095340;28;20051;-86
2022/07/12 10:15:04;;;;;;;2.28;0.80;;;;;;;25.89;83.31;100976.34;5095864;28;20601;-85
2022/07/12 10:17:33;;;;;;;1.67;0.80;;;;;;;25.13;87.90;100980.09;5095265;28;20050;-85
2022/07/12 10:20:14;;;;;;;1.10;0.60;;;;;;;25.45;87.08;100963.59;5078011;28;20143;-85
2022/07/12 10:22:41;;;;;;;0.75;0.50;;;;;;;25.89;84.79;100989.75;5085239;28;20043;-85
2022/07/12 10:25:31;;;;;;;1.30;0.70;;;;;;;25.95;87.29;100998.03;5116034;28;20065;-85
2022/07/12 10:27:58;;;;;;;2.15;0.63;;;;;;;26.14;82.72;100978.28;5087209;28;20051;-85
2022/07/12 10:30:25;;;;;;;1.17;0.60;;;;;;;26.37;80.31;101001.97;5098087;28;20477;-85
2022/07/12 10:32:59;;;;;;;0.90;0.43;;;;;;;26.41;76.75;100981.03;5093105;28;20074;-85
2022/07/12 10:35:28;;;;;;;0.43;0.40;;;;;;;26.85;77.47;100981.88;5099965;28;20059;-84
2022/07/12 10:38:16;;;;;;;0.50;0.40;;;;;;;26.67;72.10;100989.16;5077581;28;20477;-84
2022/07/12 10:40:47;;;;;;;0.30;0.30;;;;;;;26.78;71.85;101005.00;5084725;28;20054;-85
2022/07/12 10:43:16;;;;;;;0.30;0.30;;;;;;;26.19;71.69;100980.50;5107430;28;20418;-84
2022/07/12 10:45:46;;;;;;;0.43;0.30;;;;;;;26.51;70.41;101005.94;5094997;28;20135;-85
2022/07/12 10:48:13;;;;;;;0.35;0.30;;;;;;;26.73;68.19;101004.63;5106681;28;20054;-85
2022/07/12 10:50:41;;;;;;;0.55;0.38;;;;;;;26.92;68.72;101003.59;5097968;28;20485;-85
2022/07/12 10:53:23;;;;;;;0.30;0.30;;;;;;;27.01;67.93;101009.84;5087394;28;20413;-85
2022/07/12 10:56:04;;;;;;;0.30;0.30;;;;;;;26.79;68.17;101000.47;5077787;28;20048;-86
2022/07/12 10:58:32;;;;;;;0.30;0.30;;;;;;;26.93;66.65;100994.50;5109323;28;20089;-87
2022/07/12 11:01:02;;;;;;;0.52;0.30;;;;;;;27.13;66.10;101011.28;5090633;28;20077;-86
2022/07/12 11:03:44;;;;;;;0.70;0.35;;;;;;;27.56;66.71;101016.72;5113926;28;20055;-86
2022/07/12 11:06:17;;;;;;;0.20;0.20;;;;;;;26.58;64.53;101009.69;5102351;28;20084;-86
2022/07/12 11:09:02;;;;;;;0.20;0.20;;;;;;;27.08;66.29;101009.03;5090105;28;20048;-86
2022/07/12 11:11:34;;;;;;;1.85;0.30;;;;;;;27.48;64.91;100976.34;5108262;28;20047;-86
2022/07/12 11:14:02;;;;;;;0.50;0.25;;;;;;;27.60;62.68;100967.78;5089684;28;20089;-86
2022/07/12 11:16:30;;;;;;;0.20;0.20;;;;;;;27.64;62.40;101014.03;5095078;28;20720;-86
2022/07/12 11:18:57;;;;;;;0.98;0.20;;;;;;;27.88;63.55;100994.44;5108525;28;20134;-85
2022/07/12 11:21:25;;;;;;;0.35;0.10;;;;;;;27.76;61.52;100999.28;5115825;27;20043;-88
2022/07/12 11:23:52;;;;;;;0.28;0.20;;;;;;;27.76;61.57;101001.97;5092669;28;20130;-88
2022/07/12 11:26:19;;;;;;;0.20;0.20;;;;;;;27.69;59.20;101014.38;5086857;28;20044;-87
2022/07/12 11:28:48;;;;;;;0.20;0.20;;;;;;;27.73;59.97;101015.78;5077931;28;20040;-88
2022/07/12 11:31:18;;;;;;;0.32;0.20;;;;;;;27.27;59.61;100974.94;5101966;27;20083;-83
2022/07/12 11:33:47;;;;;;;0.10;0.10;;;;;;;27.47;56.07;100978.19;5100819;28;20391;-84
2022/07/12 11:36:14;;;;;;;0.38;0.30;;;;;;;27.16;58.86;101000.22;5096908;28;20168;-85